Sign-in with your pilot id or email, or register

ICAO: UKBB Name / Country: Kiev International Airport / Ukraine
Latitude: 50.345 Longitude: 30.8947
Total Arrivals:
Strict Standards: Non-static method AirportData::getarrflights() should not be called statically, assuming $this from incompatible context in /var/www/customers/vh-7192/web/home/phpvms/core/templates/airport_info.tpl on line 18
1
Total Departures:
Strict Standards: Non-static method AirportData::getdeptflights() should not be called statically, assuming $this from incompatible context in /var/www/customers/vh-7192/web/home/phpvms/core/templates/airport_info.tpl on line 21
1
Latest Arrival: MTA11P (LHBP-UKBB) Tibor Berces Latest Departure: MTA11P (UKBB-LHBP) Tibor Berces
Metar: UKBB 172230Z 23003MPS CAVOK 12/03 Q1004 R88/D NOSIG
More info

Charts for UKBB


NOTAM


Warning: file_get_contents(http://api.vateud.net/notams/UKBB.json): failed to open stream: Redirection limit reached, aborting in /var/www/customers/vh-7192/web/home/phpvms/core/common/NOTAMSData.class.php on line 18

Warning: Invalid argument supplied for foreach() in /var/www/customers/vh-7192/web/home/phpvms/core/common/NOTAMSData.class.php on line 22

Kiev International Airport